sensor_id;sensor_type;location;lat;lon;timestamp;P1;durP1;ratioP1;P2;durP2;ratioP2
12451;SDS011;6291;48.924;12.204;2023-04-25T00:04:38;2.43;;;1.80;;
12451;SDS011;6291;48.924;12.204;2023-04-25T00:09:42;2.10;;;1.90;;
12451;SDS011;6291;48.924;12.204;2023-04-25T00:14:46;2.78;;;2.00;;
12451;SDS011;6291;48.924;12.204;2023-04-25T00:19:52;2.50;;;2.10;;
12451;SDS011;6291;48.924;12.204;2023-04-25T00:24:56;3.03;;;2.20;;
12451;SDS011;6291;48.924;12.204;2023-04-25T00:30:01;3.27;;;2.20;;
12451;SDS011;6291;48.924;12.204;2023-04-25T00:35:06;2.55;;;2.35;;
12451;SDS011;6291;48.924;12.204;2023-04-25T00:40:11;2.72;;;2.50;;
12451;SDS011;6291;48.924;12.204;2023-04-25T00:45:14;2.47;;;2.15;;
12451;SDS011;6291;48.924;12.204;2023-04-25T00:50:19;2.85;;;2.40;;
12451;SDS011;6291;48.924;12.204;2023-04-25T00:55:22;2.60;;;2.40;;
12451;SDS011;6291;48.924;12.204;2023-04-25T01:00:26;2.42;;;2.22;;
12451;SDS011;6291;48.924;12.204;2023-04-25T01:05:31;2.30;;;2.10;;
12451;SDS011;6291;48.924;12.204;2023-04-25T01:10:34;2.20;;;2.00;;
12451;SDS011;6291;48.924;12.204;2023-04-25T01:15:38;3.58;;;2.15;;
12451;SDS011;6291;48.924;12.204;2023-04-25T01:20:43;2.35;;;2.00;;
12451;SDS011;6291;48.924;12.204;2023-04-25T01:25:49;2.10;;;1.90;;
12451;SDS011;6291;48.924;12.204;2023-04-25T01:30:53;1.98;;;1.83;;
12451;SDS011;6291;48.924;12.204;2023-04-25T01:35:57;2.90;;;1.95;;
12451;SDS011;6291;48.924;12.204;2023-04-25T01:41:02;3.22;;;2.00;;
12451;SDS011;6291;48.924;12.204;2023-04-25T01:46:05;2.45;;;1.90;;
12451;SDS011;6291;48.924;12.204;2023-04-25T01:51:09;2.15;;;1.95;;
12451;SDS011;6291;48.924;12.204;2023-04-25T01:56:15;2.40;;;2.00;;
12451;SDS011;6291;48.924;12.204;2023-04-25T02:01:20;2.67;;;2.20;;
12451;SDS011;6291;48.924;12.204;2023-04-25T02:06:40;2.95;;;1.92;;
12451;SDS011;6291;48.924;12.204;2023-04-25T02:11:46;2.30;;;2.10;;
12451;SDS011;6291;48.924;12.204;2023-04-25T02:17:12;3.42;;;2.10;;
12451;SDS011;6291;48.924;12.204;2023-04-25T02:22:16;2.13;;;1.80;;
12451;SDS011;6291;48.924;12.204;2023-04-25T02:27:21;3.30;;;2.10;;
12451;SDS011;6291;48.924;12.204;2023-04-25T02:32:24;2.23;;;2.03;;
12451;SDS011;6291;48.924;12.204;2023-04-25T02:37:28;3.28;;;2.17;;
12451;SDS011;6291;48.924;12.204;2023-04-25T02:42:33;3.60;;;2.20;;
12451;SDS011;6291;48.924;12.204;2023-04-25T02:47:36;3.80;;;2.10;;
12451;SDS011;6291;48.924;12.204;2023-04-25T02:52:40;2.80;;;2.20;;
12451;SDS011;6291;48.924;12.204;2023-04-25T02:57:50;3.53;;;2.27;;
12451;SDS011;6291;48.924;12.204;2023-04-25T03:03:06;2.57;;;2.23;;
12451;SDS011;6291;48.924;12.204;2023-04-25T03:08:09;3.55;;;2.42;;
12451;SDS011;6291;48.924;12.204;2023-04-25T03:13:14;2.72;;;2.35;;
12451;SDS011;6291;48.924;12.204;2023-04-25T03:18:17;2.80;;;2.50;;
12451;SDS011;6291;48.924;12.204;2023-04-25T03:23:21;3.27;;;2.20;;
12451;SDS011;6291;48.924;12.204;2023-04-25T03:28:25;3.28;;;2.15;;
12451;SDS011;6291;48.924;12.204;2023-04-25T03:33:30;2.50;;;2.10;;
12451;SDS011;6291;48.924;12.204;2023-04-25T03:38:34;2.70;;;2.20;;
12451;SDS011;6291;48.924;12.204;2023-04-25T03:43:40;2.65;;;2.40;;
12451;SDS011;6291;48.924;12.204;2023-04-25T03:48:46;3.75;;;2.40;;
12451;SDS011;6291;48.924;12.204;2023-04-25T03:53:55;2.67;;;2.45;;
12451;SDS011;6291;48.924;12.204;2023-04-25T03:59:06;3.83;;;2.67;;
12451;SDS011;6291;48.924;12.204;2023-04-25T04:04:10;3.20;;;2.50;;
12451;SDS011;6291;48.924;12.204;2023-04-25T04:09:13;3.33;;;2.60;;
12451;SDS011;6291;48.924;12.204;2023-04-25T04:14:20;2.80;;;2.50;;
12451;SDS011;6291;48.924;12.204;2023-04-25T04:19:25;2.70;;;2.50;;
12451;SDS011;6291;48.924;12.204;2023-04-25T04:24:45;2.75;;;2.42;;
12451;SDS011;6291;48.924;12.204;2023-04-25T04:29:55;3.10;;;2.80;;
12451;SDS011;6291;48.924;12.204;2023-04-25T04:35:04;3.53;;;2.50;;
12451;SDS011;6291;48.924;12.204;2023-04-25T04:40:10;3.77;;;2.70;;
12451;SDS011;6291;48.924;12.204;2023-04-25T04:45:24;4.00;;;2.78;;
12451;SDS011;6291;48.924;12.204;2023-04-25T04:50:47;3.25;;;2.95;;
12451;SDS011;6291;48.924;12.204;2023-04-25T04:56:11;3.45;;;2.85;;
12451;SDS011;6291;48.924;12.204;2023-04-25T05:01:35;2.67;;;2.43;;
12451;SDS011;6291;48.924;12.204;2023-04-25T05:07:02;2.88;;;2.20;;
12451;SDS011;6291;48.924;12.204;2023-04-25T05:12:05;2.55;;;2.22;;
12451;SDS011;6291;48.924;12.204;2023-04-25T05:17:30;3.65;;;2.50;;
12451;SDS011;6291;48.924;12.204;2023-04-25T05:23:00;3.22;;;2.60;;
12451;SDS011;6291;48.924;12.204;2023-04-25T05:28:27;2.67;;;2.20;;
12451;SDS011;6291;48.924;12.204;2023-04-25T05:34:04;2.30;;;2.10;;
12451;SDS011;6291;48.924;12.204;2023-04-25T05:39:27;2.47;;;2.07;;
12451;SDS011;6291;48.924;12.204;2023-04-25T05:45:00;3.25;;;2.13;;
12451;SDS011;6291;48.924;12.204;2023-04-25T05:50:24;1.97;;;1.77;;
12451;SDS011;6291;48.924;12.204;2023-04-25T05:55:46;3.00;;;1.90;;
12451;SDS011;6291;48.924;12.204;2023-04-25T06:00:58;3.55;;;2.33;;
12451;SDS011;6291;48.924;12.204;2023-04-25T06:06:03;2.73;;;1.97;;
12451;SDS011;6291;48.924;12.204;2023-04-25T06:11:07;2.75;;;1.70;;
12451;SDS011;6291;48.924;12.204;2023-04-25T06:16:10;3.03;;;1.90;;
12451;SDS011;6291;48.924;12.204;2023-04-25T06:21:15;3.17;;;2.35;;
12451;SDS011;6291;48.924;12.204;2023-04-25T06:26:19;4.72;;;1.70;;
12451;SDS011;6291;48.924;12.204;2023-04-25T06:31:23;3.00;;;1.60;;
12451;SDS011;6291;48.924;12.204;2023-04-25T06:36:30;3.87;;;2.03;;
12451;SDS011;6291;48.924;12.204;2023-04-25T06:41:39;2.40;;;1.92;;
12451;SDS011;6291;48.924;12.204;2023-04-25T06:47:01;1.98;;;1.77;;
12451;SDS011;6291;48.924;12.204;2023-04-25T06:52:07;3.28;;;2.03;;
12451;SDS011;6291;48.924;12.204;2023-04-25T06:57:13;3.73;;;2.40;;
12451;SDS011;6291;48.924;12.204;2023-04-25T07:02:17;3.30;;;2.30;;
12451;SDS011;6291;48.924;12.204;2023-04-25T07:07:27;3.75;;;2.70;;
12451;SDS011;6291;48.924;12.204;2023-04-25T07:12:32;2.53;;;2.00;;
12451;SDS011;6291;48.924;12.204;2023-04-25T07:17:36;3.40;;;2.30;;
12451;SDS011;6291;48.924;12.204;2023-04-25T07:22:41;3.95;;;2.78;;
12451;SDS011;6291;48.924;12.204;2023-04-25T07:27:44;2.50;;;2.30;;
12451;SDS011;6291;48.924;12.204;2023-04-25T07:32:51;3.30;;;2.10;;
12451;SDS011;6291;48.924;12.204;2023-04-25T07:37:56;2.17;;;1.80;;
12451;SDS011;6291;48.924;12.204;2023-04-25T07:43:00;2.97;;;2.03;;
12451;SDS011;6291;48.924;12.204;2023-04-25T07:48:16;2.40;;;1.70;;
12451;SDS011;6291;48.924;12.204;2023-04-25T07:53:22;3.42;;;2.10;;
12451;SDS011;6291;48.924;12.204;2023-04-25T07:58:35;3.67;;;2.13;;
12451;SDS011;6291;48.924;12.204;2023-04-25T08:03:41;3.40;;;2.85;;
12451;SDS011;6291;48.924;12.204;2023-04-25T08:08:55;2.65;;;1.98;;
12451;SDS011;6291;48.924;12.204;2023-04-25T08:14:05;4.68;;;2.95;;
12451;SDS011;6291;48.924;12.204;2023-04-25T08:19:10;3.92;;;3.03;;
12451;SDS011;6291;48.924;12.204;2023-04-25T08:24:15;3.30;;;3.00;;
12451;SDS011;6291;48.924;12.204;2023-04-25T08:29:18;2.90;;;2.60;;
12451;SDS011;6291;48.924;12.204;2023-04-25T08:34:22;2.72;;;2.22;;
12451;SDS011;6291;48.924;12.204;2023-04-25T08:39:28;2.60;;;2.05;;
12451;SDS011;6291;48.924;12.204;2023-04-25T08:44:48;1.80;;;1.50;;
12451;SDS011;6291;48.924;12.204;2023-04-25T08:49:54;1.88;;;1.70;;
12451;SDS011;6291;48.924;12.204;2023-04-25T08:54:59;2.42;;;2.22;;
12451;SDS011;6291;48.924;12.204;2023-04-25T09:00:06;1.70;;;1.50;;
12451;SDS011;6291;48.924;12.204;2023-04-25T09:05:13;2.83;;;2.63;;
12451;SDS011;6291;48.924;12.204;2023-04-25T09:10:19;3.20;;;2.50;;
12451;SDS011;6291;48.924;12.204;2023-04-25T09:15:23;3.17;;;2.42;;
12451;SDS011;6291;48.924;12.204;2023-04-25T09:20:49;2.83;;;2.53;;
12451;SDS011;6291;48.924;12.204;2023-04-25T09:25:57;1.87;;;1.60;;
12451;SDS011;6291;48.924;12.204;2023-04-25T09:31:01;1.00;;;0.60;;
12451;SDS011;6291;48.924;12.204;2023-04-25T09:36:14;1.35;;;1.00;;
12451;SDS011;6291;48.924;12.204;2023-04-25T09:41:41;4.32;;;2.05;;
12451;SDS011;6291;48.924;12.204;2023-04-25T09:46:46;3.03;;;2.22;;
12451;SDS011;6291;48.924;12.204;2023-04-25T09:51:58;3.45;;;2.45;;
12451;SDS011;6291;48.924;12.204;2023-04-25T09:57:16;4.80;;;2.95;;
12451;SDS011;6291;48.924;12.204;2023-04-25T10:02:21;3.78;;;2.95;;
12451;SDS011;6291;48.924;12.204;2023-04-25T10:07:30;4.75;;;2.70;;
12451;SDS011;6291;48.924;12.204;2023-04-25T10:12:37;2.08;;;1.80;;
12451;SDS011;6291;48.924;12.204;2023-04-25T10:17:42;1.90;;;1.73;;
12451;SDS011;6291;48.924;12.204;2023-04-25T10:22:46;2.10;;;1.90;;
12451;SDS011;6291;48.924;12.204;2023-04-25T10:27:52;2.20;;;2.03;;
12451;SDS011;6291;48.924;12.204;2023-04-25T10:32:56;3.22;;;2.72;;
12451;SDS011;6291;48.924;12.204;2023-04-25T10:38:02;3.30;;;2.60;;
12451;SDS011;6291;48.924;12.204;2023-04-25T10:48:43;3.67;;;2.50;;
12451;SDS011;6291;48.924;12.204;2023-04-25T10:59:13;2.20;;;2.00;;
12451;SDS011;6291;48.924;12.204;2023-04-25T11:04:21;3.00;;;2.75;;
12451;SDS011;6291;48.924;12.204;2023-04-25T11:09:26;3.65;;;3.35;;
12451;SDS011;6291;48.924;12.204;2023-04-25T11:14:31;3.22;;;2.88;;
12451;SDS011;6291;48.924;12.204;2023-04-25T11:19:34;3.27;;;2.30;;
12451;SDS011;6291;48.924;12.204;2023-04-25T11:24:37;2.60;;;2.40;;
12451;SDS011;6291;48.924;12.204;2023-04-25T11:29:42;2.75;;;2.40;;
12451;SDS011;6291;48.924;12.204;2023-04-25T11:34:46;1.30;;;1.20;;
12451;SDS011;6291;48.924;12.204;2023-04-25T11:39:49;1.20;;;1.00;;
12451;SDS011;6291;48.924;12.204;2023-04-25T11:44:55;1.70;;;1.20;;
12451;SDS011;6291;48.924;12.204;2023-04-25T11:49:59;1.27;;;0.80;;
12451;SDS011;6291;48.924;12.204;2023-04-25T11:55:03;1.00;;;0.80;;
12451;SDS011;6291;48.924;12.204;2023-04-25T12:00:12;1.05;;;0.80;;
12451;SDS011;6291;48.924;12.204;2023-04-25T12:05:19;1.15;;;0.70;;
12451;SDS011;6291;48.924;12.204;2023-04-25T12:10:29;0.90;;;0.90;;
12451;SDS011;6291;48.924;12.204;2023-04-25T12:15:33;1.83;;;1.30;;
12451;SDS011;6291;48.924;12.204;2023-04-25T12:20:37;0.87;;;0.80;;
12451;SDS011;6291;48.924;12.204;2023-04-25T12:25:40;1.38;;;1.10;;
12451;SDS011;6291;48.924;12.204;2023-04-25T12:30:54;1.90;;;1.17;;
12451;SDS011;6291;48.924;12.204;2023-04-25T12:35:59;1.73;;;1.23;;
12451;SDS011;6291;48.924;12.204;2023-04-25T12:41:09;1.35;;;1.02;;
12451;SDS011;6291;48.924;12.204;2023-04-25T12:46:13;1.77;;;1.25;;
12451;SDS011;6291;48.924;12.204;2023-04-25T12:51:17;1.45;;;1.30;;
12451;SDS011;6291;48.924;12.204;2023-04-25T12:56:20;2.17;;;1.37;;
12451;SDS011;6291;48.924;12.204;2023-04-25T13:01:27;1.30;;;1.20;;
12451;SDS011;6291;48.924;12.204;2023-04-25T13:06:31;2.35;;;1.27;;
12451;SDS011;6291;48.924;12.204;2023-04-25T13:11:34;2.85;;;1.60;;
12451;SDS011;6291;48.924;12.204;2023-04-25T13:16:39;2.35;;;1.35;;
12451;SDS011;6291;48.924;12.204;2023-04-25T13:21:42;3.00;;;1.50;;
12451;SDS011;6291;48.924;12.204;2023-04-25T13:26:46;1.45;;;1.23;;
12451;SDS011;6291;48.924;12.204;2023-04-25T13:31:51;2.43;;;1.40;;
12451;SDS011;6291;48.924;12.204;2023-04-25T13:36:54;1.60;;;1.30;;
12451;SDS011;6291;48.924;12.204;2023-04-25T13:41:57;2.07;;;1.37;;
12451;SDS011;6291;48.924;12.204;2023-04-25T13:47:03;1.60;;;1.20;;
12451;SDS011;6291;48.924;12.204;2023-04-25T13:52:06;1.88;;;1.55;;
12451;SDS011;6291;48.924;12.204;2023-04-25T13:57:09;2.10;;;1.70;;
12451;SDS011;6291;48.924;12.204;2023-04-25T14:02:14;4.00;;;1.60;;
12451;SDS011;6291;48.924;12.204;2023-04-25T14:07:18;2.10;;;1.70;;
12451;SDS011;6291;48.924;12.204;2023-04-25T14:12:22;1.80;;;1.50;;
12451;SDS011;6291;48.924;12.204;2023-04-25T14:17:27;3.00;;;1.77;;
12451;SDS011;6291;48.924;12.204;2023-04-25T14:22:31;2.20;;;1.50;;
12451;SDS011;6291;48.924;12.204;2023-04-25T14:27:34;1.90;;;1.38;;
12451;SDS011;6291;48.924;12.204;2023-04-25T14:32:39;2.55;;;1.50;;
12451;SDS011;6291;48.924;12.204;2023-04-25T14:37:42;2.97;;;1.40;;
12451;SDS011;6291;48.924;12.204;2023-04-25T14:42:46;1.90;;;1.30;;
12451;SDS011;6291;48.924;12.204;2023-04-25T14:47:51;1.53;;;1.20;;
12451;SDS011;6291;48.924;12.204;2023-04-25T14:52:54;2.90;;;1.80;;
12451;SDS011;6291;48.924;12.204;2023-04-25T14:58:00;2.20;;;1.40;;
12451;SDS011;6291;48.924;12.204;2023-04-25T15:03:04;3.20;;;2.30;;
12451;SDS011;6291;48.924;12.204;2023-04-25T15:08:09;2.60;;;1.85;;
12451;SDS011;6291;48.924;12.204;2023-04-25T15:13:12;1.83;;;1.20;;
12451;SDS011;6291;48.924;12.204;2023-04-25T15:18:19;2.95;;;1.50;;
12451;SDS011;6291;48.924;12.204;2023-04-25T15:23:24;1.98;;;1.30;;
12451;SDS011;6291;48.924;12.204;2023-04-25T15:28:30;1.83;;;0.90;;
12451;SDS011;6291;48.924;12.204;2023-04-25T15:33:36;1.20;;;0.80;;
12451;SDS011;6291;48.924;12.204;2023-04-25T15:38:39;1.00;;;0.80;;
12451;SDS011;6291;48.924;12.204;2023-04-25T15:43:42;1.10;;;0.80;;
12451;SDS011;6291;48.924;12.204;2023-04-25T15:48:49;1.30;;;0.90;;
12451;SDS011;6291;48.924;12.204;2023-04-25T15:53:52;1.50;;;0.80;;
12451;SDS011;6291;48.924;12.204;2023-04-25T15:58:56;1.23;;;0.70;;
12451;SDS011;6291;48.924;12.204;2023-04-25T16:04:01;1.37;;;0.90;;
12451;SDS011;6291;48.924;12.204;2023-04-25T16:09:05;1.42;;;0.90;;
12451;SDS011;6291;48.924;12.204;2023-04-25T16:14:08;1.73;;;1.10;;
12451;SDS011;6291;48.924;12.204;2023-04-25T16:19:13;1.65;;;1.02;;
12451;SDS011;6291;48.924;12.204;2023-04-25T16:24:16;1.40;;;0.90;;
12451;SDS011;6291;48.924;12.204;2023-04-25T16:29:20;1.67;;;1.13;;
12451;SDS011;6291;48.924;12.204;2023-04-25T16:34:25;1.20;;;1.10;;
12451;SDS011;6291;48.924;12.204;2023-04-25T16:39:29;1.50;;;1.10;;
12451;SDS011;6291;48.924;12.204;2023-04-25T16:44:32;2.10;;;1.40;;
12451;SDS011;6291;48.924;12.204;2023-04-25T16:49:37;3.40;;;1.50;;
12451;SDS011;6291;48.924;12.204;2023-04-25T16:54:41;2.40;;;1.07;;
12451;SDS011;6291;48.924;12.204;2023-04-25T16:59:44;2.35;;;1.50;;
12451;SDS011;6291;48.924;12.204;2023-04-25T17:04:49;1.53;;;1.07;;
12451;SDS011;6291;48.924;12.204;2023-04-25T17:09:52;1.35;;;1.23;;
12451;SDS011;6291;48.924;12.204;2023-04-25T17:14:56;1.73;;;1.37;;
12451;SDS011;6291;48.924;12.204;2023-04-25T17:20:02;1.67;;;1.40;;
12451;SDS011;6291;48.924;12.204;2023-04-25T17:25:08;2.10;;;1.20;;
12451;SDS011;6291;48.924;12.204;2023-04-25T17:30:12;1.73;;;1.20;;
12451;SDS011;6291;48.924;12.204;2023-04-25T17:35:18;2.25;;;1.50;;
12451;SDS011;6291;48.924;12.204;2023-04-25T17:40:21;1.58;;;1.27;;
12451;SDS011;6291;48.924;12.204;2023-04-25T17:45:25;1.70;;;1.58;;
12451;SDS011;6291;48.924;12.204;2023-04-25T17:50:30;2.35;;;1.38;;
12451;SDS011;6291;48.924;12.204;2023-04-25T17:55:34;2.10;;;1.60;;
12451;SDS011;6291;48.924;12.204;2023-04-25T18:00:37;3.07;;;2.00;;
12451;SDS011;6291;48.924;12.204;2023-04-25T18:05:42;1.83;;;1.42;;
12451;SDS011;6291;48.924;12.204;2023-04-25T18:10:46;7.70;;;4.10;;
12451;SDS011;6291;48.924;12.204;2023-04-25T18:15:49;2.85;;;1.70;;
12451;SDS011;6291;48.924;12.204;2023-04-25T18:20:54;2.28;;;1.90;;
12451;SDS011;6291;48.924;12.204;2023-04-25T18:25:57;2.20;;;1.70;;
12451;SDS011;6291;48.924;12.204;2023-04-25T18:31:01;2.88;;;1.85;;
12451;SDS011;6291;48.924;12.204;2023-04-25T18:36:06;3.20;;;2.40;;
12451;SDS011;6291;48.924;12.204;2023-04-25T18:41:09;3.28;;;2.20;;
12451;SDS011;6291;48.924;12.204;2023-04-25T18:46:33;2.50;;;2.20;;
12451;SDS011;6291;48.924;12.204;2023-04-25T18:51:39;7.72;;;3.85;;
12451;SDS011;6291;48.924;12.204;2023-04-25T18:56:42;8.38;;;4.32;;
12451;SDS011;6291;48.924;12.204;2023-04-25T19:01:46;7.75;;;3.55;;
12451;SDS011;6291;48.924;12.204;2023-04-25T19:06:51;11.52;;;5.80;;
12451;SDS011;6291;48.924;12.204;2023-04-25T19:11:55;9.35;;;5.53;;
12451;SDS011;6291;48.924;12.204;2023-04-25T19:16:59;9.97;;;5.63;;
12451;SDS011;6291;48.924;12.204;2023-04-25T19:22:03;9.10;;;5.53;;
12451;SDS011;6291;48.924;12.204;2023-04-25T19:27:07;11.07;;;5.90;;
12451;SDS011;6291;48.924;12.204;2023-04-25T19:32:11;7.15;;;3.97;;
12451;SDS011;6291;48.924;12.204;2023-04-25T19:37:16;5.43;;;3.33;;
12451;SDS011;6291;48.924;12.204;2023-04-25T19:42:19;6.35;;;3.35;;
12451;SDS011;6291;48.924;12.204;2023-04-25T19:47:24;7.55;;;5.50;;
12451;SDS011;6291;48.924;12.204;2023-04-25T19:52:30;5.32;;;4.38;;
12451;SDS011;6291;48.924;12.204;2023-04-25T19:57:34;4.07;;;2.60;;
12451;SDS011;6291;48.924;12.204;2023-04-25T20:02:38;3.88;;;3.00;;
12451;SDS011;6291;48.924;12.204;2023-04-25T20:07:44;5.22;;;3.60;;
12451;SDS011;6291;48.924;12.204;2023-04-25T20:12:47;3.25;;;2.83;;
12451;SDS011;6291;48.924;12.204;2023-04-25T20:17:50;3.30;;;2.80;;
12451;SDS011;6291;48.924;12.204;2023-04-25T20:22:55;5.13;;;3.08;;
12451;SDS011;6291;48.924;12.204;2023-04-25T20:27:58;5.40;;;3.55;;
12451;SDS011;6291;48.924;12.204;2023-04-25T20:33:02;3.78;;;2.58;;
12451;SDS011;6291;48.924;12.204;2023-04-25T20:38:09;4.27;;;3.50;;
12451;SDS011;6291;48.924;12.204;2023-04-25T20:43:12;3.35;;;2.70;;
12451;SDS011;6291;48.924;12.204;2023-04-25T20:48:16;3.00;;;2.30;;
12451;SDS011;6291;48.924;12.204;2023-04-25T20:53:21;5.60;;;3.43;;
12451;SDS011;6291;48.924;12.204;2023-04-25T20:58:25;13.73;;;7.32;;
12451;SDS011;6291;48.924;12.204;2023-04-25T21:03:29;13.68;;;7.65;;
12451;SDS011;6291;48.924;12.204;2023-04-25T21:08:34;10.33;;;5.90;;
12451;SDS011;6291;48.924;12.204;2023-04-25T21:13:37;4.93;;;3.45;;
12451;SDS011;6291;48.924;12.204;2023-04-25T21:18:41;3.30;;;2.97;;
12451;SDS011;6291;48.924;12.204;2023-04-25T21:23:45;7.97;;;4.80;;
12451;SDS011;6291;48.924;12.204;2023-04-25T21:28:49;3.17;;;2.70;;
12451;SDS011;6291;48.924;12.204;2023-04-25T21:33:53;3.58;;;2.70;;
12451;SDS011;6291;48.924;12.204;2023-04-25T21:38:58;4.30;;;2.60;;
12451;SDS011;6291;48.924;12.204;2023-04-25T21:44:01;2.77;;;2.47;;
12451;SDS011;6291;48.924;12.204;2023-04-25T21:49:05;3.10;;;2.70;;
12451;SDS011;6291;48.924;12.204;2023-04-25T21:54:10;3.45;;;2.40;;
12451;SDS011;6291;48.924;12.204;2023-04-25T21:59:13;3.37;;;2.50;;
12451;SDS011;6291;48.924;12.204;2023-04-25T22:04:16;2.93;;;2.40;;
12451;SDS011;6291;48.924;12.204;2023-04-25T22:09:21;3.65;;;2.47;;
12451;SDS011;6291;48.924;12.204;2023-04-25T22:14:25;2.53;;;2.27;;
12451;SDS011;6291;48.924;12.204;2023-04-25T22:19:28;3.28;;;2.50;;
12451;SDS011;6291;48.924;12.204;2023-04-25T22:24:33;3.30;;;2.33;;
12451;SDS011;6291;48.924;12.204;2023-04-25T22:29:36;3.35;;;2.30;;
12451;SDS011;6291;48.924;12.204;2023-04-25T22:34:40;2.95;;;2.53;;
12451;SDS011;6291;48.924;12.204;2023-04-25T22:39:45;3.92;;;2.72;;
12451;SDS011;6291;48.924;12.204;2023-04-25T22:44:48;3.83;;;2.77;;
12451;SDS011;6291;48.924;12.204;2023-04-25T22:49:53;4.43;;;2.92;;
12451;SDS011;6291;48.924;12.204;2023-04-25T22:54:59;3.17;;;2.50;;
12451;SDS011;6291;48.924;12.204;2023-04-25T23:00:03;3.93;;;2.73;;
12451;SDS011;6291;48.924;12.204;2023-04-25T23:05:15;4.10;;;2.80;;
12451;SDS011;6291;48.924;12.204;2023-04-25T23:10:20;4.88;;;3.20;;
12451;SDS011;6291;48.924;12.204;2023-04-25T23:15:24;4.27;;;2.90;;
12451;SDS011;6291;48.924;12.204;2023-04-25T23:20:28;4.13;;;3.50;;
12451;SDS011;6291;48.924;12.204;2023-04-25T23:25:35;4.20;;;3.27;;
12451;SDS011;6291;48.924;12.204;2023-04-25T23:30:40;5.18;;;3.90;;
12451;SDS011;6291;48.924;12.204;2023-04-25T23:35:43;4.13;;;3.10;;
12451;SDS011;6291;48.924;12.204;2023-04-25T23:40:48;4.17;;;3.30;;
12451;SDS011;6291;48.924;12.204;2023-04-25T23:45:51;4.45;;;3.28;;
12451;SDS011;6291;48.924;12.204;2023-04-25T23:50:55;4.60;;;3.05;;
12451;SDS011;6291;48.924;12.204;2023-04-25T23:56:02;4.35;;;3.20;;
